الصفحة الرئيسية
METAR-TAF:

METAR-TAF

مطار :

سيام ريب, كمبوديا

دائرة عرض: 13-22N, خط طول: 103-51E, ارتفاع: 15 متر

مراقبة الطقس الحالي

تاريخ ووقت الإصدار 38 دقيقة قبل الساعة 02:00UTC
ريح 5 عقدة من الشمال الشرقي
درجة الحرارة 24°درجة مئوية
الرطوبة 100%
ضغط 1010 hPa
الرؤية: 9000 متر
غيوم متفرقة على ارتفاع 1500 قدم
غيوم متفرقة على ارتفاع 4000 قدم
مطر خفيف

METAR: VDSR 190200Z 04005KT 9000 -RA SCT015 SCT040 24/24 Q1010

زمن: 09:38 (02:38 UTC)

توقعات

تاريخ ووقت الإصدار 3ساعات و 38 دقيقة قبل الساعة 23:00UTC
التوقعات صالحة من19 الساعة 00 UTC إلى 19 الساعة 18 UTC
ريح 7 عقدة من الغرب
الرؤية: 9000 متر
غيوم متفرقة على ارتفاع 1700 قدم
غيوم متفرقة على ارتفاع 4000 قدم
مطر خفيف
أصبح
من 19 الساعة 01 UTC إلى 19 الساعة 02 UTC
مؤقت
من 19 الساعة 06 UTC إلى 19 الساعة 11 UTC
الرؤية: 5000 متر
غيوم متفرقة على ارتفاع 1500 قدم
غيوم قليلة على ارتفاع 1700 قدم, مزنة ركامية.
غيوم متفرقة على ارتفاع 4000 قدم
عاصفة رعدية, مطر

TAF: VDSR 182300Z 1900/1918 26007KT 9000 -RA SCT017 SCT040 BECMG 1901/1902 NSW TEMPO 1906/1911 5000 TSRA SCT015 FEW017CB SCT040

أرصاد الطقس والتوقعات من أكثر من 4000 مطار (تقارير الطقس للمطار METAR والتنبؤ بالطقس بالمطارTAF).

المحطات المتاحة هي النقط الصفراء والحمراء على الخريطة.

حرك المؤشر فوق النقطة لمعرفة اسم المحطة.

ثم انقر لمعرفة أرصاد وتوقعات الطقس.

لتغيير الخارطة: اضغط على الأزرار الخضراء مع رمز الصليب الأسود للتكبير. على الزر الأخضر مع شرطة للتصغير، أو على الأسهم الخضراء للخرائط المجاورة.


METAR-TAF: